Impacts TAF Board
For situational awareness. Not to be used for flight planning purposes.
IDs:

KATL - Atlanta/Hartsfield I, GA, US

Issued at 1554 UTC 01 Mar 2021
Updated at 1728 UTC 01 Mar 2021
Potential Impact None Slight Moderate High
Time1652Z 01/18Z 01/19Z 01/20Z 01/21Z 01/22Z 01/23Z 02/00Z 02/01Z 02/02Z 02/03Z 02/04Z 02/05Z 02/06Z>>
Type OBS PRVL PRVL PRVL PRVL PRVL PRVL PRVL PRVL PRVL PRVL PRVL PRVL PRVL
VIS 10 >6 >6 >6 >6 >6 >6 >6 >6 >6 >6 >6 >6 >6
CIG 60 70 70 70 70 70 70 70 70 250 250 250 250 250
Cover OVC OVC OVC OVC OVC OVC OVC OVC OVC BKN BKN BKN BKN BKN
FltCat VFR VFR VFR VFR VFR VFR VFR VFR VFR VFR VFR VFR VFR VFR
WX -- VCSH VCSH VCSH VCSH VCSH VCSH VCSH VCSH -- -- -- -- --
WDir 240 280 280 280 280 280 280 280 280 340 340 340 340 340
WSpd 6 5 5 5 5 5 5 5 5 8 8 8 8 8
WGst -- -- -- -- -- -- -- -- -- -- -- -- -- --
Raw TAF
KATL 011554Z 0116/0218 28005KT P6SM VCSH FEW008 BKN070 OVC080
  FM020200 34008KT P6SM SCT120 BKN250
  FM021000 02006KT P6SM SCT080 BKN120
  FM021500 09010KT P6SM SCT080 BKN120


Raw METAR
KATL 011652Z 24006KT 10SM FEW012 BKN060 OVC075 16/12 A3005 RMK AO2 SLP172 VIRGA DSNT SW-NW T01560122
KATL 011552Z 24007KT 10SM FEW010 BKN065 OVC080 15/13 A3008 RMK AO2 SLP180 VIRGA DSNT NE-SE-SW-NW T01500128
KATL 011452Z 28005KT 10SM FEW008 BKN065 OVC080 15/13 A3009 RMK AO2 RAE1359B17E50 SLP184 VIRGA NE-SE-SW P0000 60002 T01500128 51021

METAR Board
Radar Display
Forecast Discussion
For situational awareness. Not to be used for flight planning purposes.